sensor_id;sensor_type;location;lat;lon;timestamp;temperature;humidity
81524;DHT22;70954;49.500;10.416;2023-12-07T00:01:03;3.90;72.50
81524;DHT22;70954;49.500;10.416;2023-12-07T00:03:28;3.90;72.60
81524;DHT22;70954;49.500;10.416;2023-12-07T00:05:54;3.90;72.60
81524;DHT22;70954;49.500;10.416;2023-12-07T00:08:19;3.80;72.60
81524;DHT22;70954;49.500;10.416;2023-12-07T00:10:45;3.90;72.70
81524;DHT22;70954;49.500;10.416;2023-12-07T00:13:10;3.90;72.70
81524;DHT22;70954;49.500;10.416;2023-12-07T00:15:35;3.90;72.70
81524;DHT22;70954;49.500;10.416;2023-12-07T00:18:01;3.90;72.80
81524;DHT22;70954;49.500;10.416;2023-12-07T00:20:26;3.90;72.70
81524;DHT22;70954;49.500;10.416;2023-12-07T00:22:52;3.90;72.70
81524;DHT22;70954;49.500;10.416;2023-12-07T00:25:17;3.90;72.70
81524;DHT22;70954;49.500;10.416;2023-12-07T00:27:43;3.90;72.60
81524;DHT22;70954;49.500;10.416;2023-12-07T00:30:09;3.90;72.60
81524;DHT22;70954;49.500;10.416;2023-12-07T00:32:35;3.90;72.60
81524;DHT22;70954;49.500;10.416;2023-12-07T00:35:00;3.90;72.60
81524;DHT22;70954;49.500;10.416;2023-12-07T00:37:26;3.80;72.60
81524;DHT22;70954;49.500;10.416;2023-12-07T00:39:51;3.80;72.60
81524;DHT22;70954;49.500;10.416;2023-12-07T00:42:16;3.80;72.70
81524;DHT22;70954;49.500;10.416;2023-12-07T00:44:42;3.80;72.70
81524;DHT22;70954;49.500;10.416;2023-12-07T00:47:07;3.80;72.80
81524;DHT22;70954;49.500;10.416;2023-12-07T00:49:33;3.80;72.80
81524;DHT22;70954;49.500;10.416;2023-12-07T00:51:59;3.80;72.80
81524;DHT22;70954;49.500;10.416;2023-12-07T00:54:24;3.80;72.90
81524;DHT22;70954;49.500;10.416;2023-12-07T00:56:50;3.80;72.90
81524;DHT22;70954;49.500;10.416;2023-12-07T00:59:15;3.80;72.90
81524;DHT22;70954;49.500;10.416;2023-12-07T01:01:40;3.80;73.00
81524;DHT22;70954;49.500;10.416;2023-12-07T01:04:06;3.90;73.00
81524;DHT22;70954;49.500;10.416;2023-12-07T01:06:31;3.80;73.00
81524;DHT22;70954;49.500;10.416;2023-12-07T01:08:57;3.80;72.90
81524;DHT22;70954;49.500;10.416;2023-12-07T01:11:23;3.90;72.90
81524;DHT22;70954;49.500;10.416;2023-12-07T01:13:48;3.90;72.90
81524;DHT22;70954;49.500;10.416;2023-12-07T01:16:14;3.90;72.90
81524;DHT22;70954;49.500;10.416;2023-12-07T01:18:39;3.90;72.90
81524;DHT22;70954;49.500;10.416;2023-12-07T01:21:05;3.90;72.90
81524;DHT22;70954;49.500;10.416;2023-12-07T01:23:31;3.90;72.90
81524;DHT22;70954;49.500;10.416;2023-12-07T01:25:57;3.90;72.90
81524;DHT22;70954;49.500;10.416;2023-12-07T01:28:22;3.90;72.90
81524;DHT22;70954;49.500;10.416;2023-12-07T01:30:48;3.90;72.90
81524;DHT22;70954;49.500;10.416;2023-12-07T01:33:13;3.90;72.90
81524;DHT22;70954;49.500;10.416;2023-12-07T01:35:39;3.90;72.90
81524;DHT22;70954;49.500;10.416;2023-12-07T01:38:04;3.90;72.90
81524;DHT22;70954;49.500;10.416;2023-12-07T01:40:29;3.90;72.90
81524;DHT22;70954;49.500;10.416;2023-12-07T01:42:55;3.90;72.90
81524;DHT22;70954;49.500;10.416;2023-12-07T01:45:20;3.90;72.80
81524;DHT22;70954;49.500;10.416;2023-12-07T01:47:47;3.90;72.90
81524;DHT22;70954;49.500;10.416;2023-12-07T01:50:14;3.90;72.90
81524;DHT22;70954;49.500;10.416;2023-12-07T01:52:44;3.90;72.90
81524;DHT22;70954;49.500;10.416;2023-12-07T01:55:10;3.90;72.90
81524;DHT22;70954;49.500;10.416;2023-12-07T01:57:44;3.90;72.90
81524;DHT22;70954;49.500;10.416;2023-12-07T02:00:11;3.90;72.80
81524;DHT22;70954;49.500;10.416;2023-12-07T02:02:37;3.90;72.90
81524;DHT22;70954;49.500;10.416;2023-12-07T02:05:04;3.90;73.00
81524;DHT22;70954;49.500;10.416;2023-12-07T02:07:30;3.90;73.00
81524;DHT22;70954;49.500;10.416;2023-12-07T02:09:57;3.90;73.00
81524;DHT22;70954;49.500;10.416;2023-12-07T02:12:23;3.90;73.10
81524;DHT22;70954;49.500;10.416;2023-12-07T02:14:48;4.00;73.00
81524;DHT22;70954;49.500;10.416;2023-12-07T02:18:08;3.90;73.00
81524;DHT22;70954;49.500;10.416;2023-12-07T02:20:09;4.00;72.90
81524;DHT22;70954;49.500;10.416;2023-12-07T02:22:48;3.90;72.90
81524;DHT22;70954;49.500;10.416;2023-12-07T02:25:15;4.00;72.90
81524;DHT22;70954;49.500;10.416;2023-12-07T02:27:43;4.00;72.90
81524;DHT22;70954;49.500;10.416;2023-12-07T02:30:11;4.00;73.00
81524;DHT22;70954;49.500;10.416;2023-12-07T02:32:38;4.00;72.90
81524;DHT22;70954;49.500;10.416;2023-12-07T02:35:04;4.00;72.80
81524;DHT22;70954;49.500;10.416;2023-12-07T02:37:34;4.00;72.80
81524;DHT22;70954;49.500;10.416;2023-12-07T02:40:00;4.00;72.80
81524;DHT22;70954;49.500;10.416;2023-12-07T02:42:26;4.00;72.80
81524;DHT22;70954;49.500;10.416;2023-12-07T02:44:52;4.10;72.80
81524;DHT22;70954;49.500;10.416;2023-12-07T02:47:18;4.10;72.70
81524;DHT22;70954;49.500;10.416;2023-12-07T02:49:44;4.10;72.60
81524;DHT22;70954;49.500;10.416;2023-12-07T02:52:09;4.10;72.60
81524;DHT22;70954;49.500;10.416;2023-12-07T02:54:35;4.10;72.60
81524;DHT22;70954;49.500;10.416;2023-12-07T02:57:00;4.10;72.50
81524;DHT22;70954;49.500;10.416;2023-12-07T02:59:26;4.10;72.60
81524;DHT22;70954;49.500;10.416;2023-12-07T03:01:51;4.10;72.50
81524;DHT22;70954;49.500;10.416;2023-12-07T03:04:17;4.10;72.50
81524;DHT22;70954;49.500;10.416;2023-12-07T03:06:42;4.10;72.50
81524;DHT22;70954;49.500;10.416;2023-12-07T03:09:08;4.10;72.40
81524;DHT22;70954;49.500;10.416;2023-12-07T03:11:33;4.10;72.30
81524;DHT22;70954;49.500;10.416;2023-12-07T03:13:59;4.10;72.40
81524;DHT22;70954;49.500;10.416;2023-12-07T03:16:24;4.10;72.30
81524;DHT22;70954;49.500;10.416;2023-12-07T03:18:49;4.10;72.30
81524;DHT22;70954;49.500;10.416;2023-12-07T03:21:15;4.10;72.30
81524;DHT22;70954;49.500;10.416;2023-12-07T03:23:40;4.10;72.30
81524;DHT22;70954;49.500;10.416;2023-12-07T03:26:06;4.10;72.40
81524;DHT22;70954;49.500;10.416;2023-12-07T03:28:31;4.10;72.30
81524;DHT22;70954;49.500;10.416;2023-12-07T03:30:57;4.10;72.40
81524;DHT22;70954;49.500;10.416;2023-12-07T03:33:22;4.10;72.40
81524;DHT22;70954;49.500;10.416;2023-12-07T03:35:48;4.10;72.40
81524;DHT22;70954;49.500;10.416;2023-12-07T03:38:14;4.10;72.40
81524;DHT22;70954;49.500;10.416;2023-12-07T03:40:39;4.10;72.30
81524;DHT22;70954;49.500;10.416;2023-12-07T03:43:05;4.10;72.30
81524;DHT22;70954;49.500;10.416;2023-12-07T03:45:30;4.10;72.30
81524;DHT22;70954;49.500;10.416;2023-12-07T03:47:55;4.10;72.20
81524;DHT22;70954;49.500;10.416;2023-12-07T03:50:21;4.10;72.20
81524;DHT22;70954;49.500;10.416;2023-12-07T03:52:46;4.10;72.20
81524;DHT22;70954;49.500;10.416;2023-12-07T03:55:12;4.10;72.20
81524;DHT22;70954;49.500;10.416;2023-12-07T03:57:37;4.10;72.20
81524;DHT22;70954;49.500;10.416;2023-12-07T04:00:03;4.10;72.20
81524;DHT22;70954;49.500;10.416;2023-12-07T04:02:29;4.10;72.20
81524;DHT22;70954;49.500;10.416;2023-12-07T04:04:54;4.10;72.20
81524;DHT22;70954;49.500;10.416;2023-12-07T04:07:20;4.10;72.10
81524;DHT22;70954;49.500;10.416;2023-12-07T04:09:45;4.10;72.10
81524;DHT22;70954;49.500;10.416;2023-12-07T04:12:10;4.00;71.90
81524;DHT22;70954;49.500;10.416;2023-12-07T04:14:36;4.00;71.80
81524;DHT22;70954;49.500;10.416;2023-12-07T04:17:01;4.00;71.70
81524;DHT22;70954;49.500;10.416;2023-12-07T04:19:27;4.00;71.60
81524;DHT22;70954;49.500;10.416;2023-12-07T04:21:52;4.00;71.50
81524;DHT22;70954;49.500;10.416;2023-12-07T04:24:18;3.90;71.40
81524;DHT22;70954;49.500;10.416;2023-12-07T04:26:43;3.90;71.20
81524;DHT22;70954;49.500;10.416;2023-12-07T04:29:08;3.90;71.20
81524;DHT22;70954;49.500;10.416;2023-12-07T04:31:34;3.80;71.10
81524;DHT22;70954;49.500;10.416;2023-12-07T04:33:59;3.80;71.00
81524;DHT22;70954;49.500;10.416;2023-12-07T04:36:25;3.70;70.90
81524;DHT22;70954;49.500;10.416;2023-12-07T04:38:50;3.70;70.90
81524;DHT22;70954;49.500;10.416;2023-12-07T04:41:16;3.60;70.80
81524;DHT22;70954;49.500;10.416;2023-12-07T04:43:41;3.60;70.80
81524;DHT22;70954;49.500;10.416;2023-12-07T04:46:07;3.50;70.80
81524;DHT22;70954;49.500;10.416;2023-12-07T04:48:32;3.50;70.80
81524;DHT22;70954;49.500;10.416;2023-12-07T04:50:57;3.40;70.90
81524;DHT22;70954;49.500;10.416;2023-12-07T04:53:23;3.30;70.90
81524;DHT22;70954;49.500;10.416;2023-12-07T04:55:48;3.30;71.00
81524;DHT22;70954;49.500;10.416;2023-12-07T04:58:14;3.30;71.00
81524;DHT22;70954;49.500;10.416;2023-12-07T05:00:39;3.30;71.10
81524;DHT22;70954;49.500;10.416;2023-12-07T05:03:05;3.20;71.10
81524;DHT22;70954;49.500;10.416;2023-12-07T05:05:30;3.10;71.10
81524;DHT22;70954;49.500;10.416;2023-12-07T05:07:56;3.10;71.10
81524;DHT22;70954;49.500;10.416;2023-12-07T05:10:21;3.10;71.20
81524;DHT22;70954;49.500;10.416;2023-12-07T05:12:46;3.10;71.30
81524;DHT22;70954;49.500;10.416;2023-12-07T05:15:12;3.00;71.50
81524;DHT22;70954;49.500;10.416;2023-12-07T05:17:37;3.00;71.50
81524;DHT22;70954;49.500;10.416;2023-12-07T05:20:03;2.90;71.60
81524;DHT22;70954;49.500;10.416;2023-12-07T05:22:29;2.90;71.60
81524;DHT22;70954;49.500;10.416;2023-12-07T05:24:54;2.90;71.70
81524;DHT22;70954;49.500;10.416;2023-12-07T05:27:20;2.80;71.70
81524;DHT22;70954;49.500;10.416;2023-12-07T05:29:45;2.80;71.80
81524;DHT22;70954;49.500;10.416;2023-12-07T05:32:11;2.80;72.00
81524;DHT22;70954;49.500;10.416;2023-12-07T05:34:36;2.80;72.20
81524;DHT22;70954;49.500;10.416;2023-12-07T05:37:02;2.80;72.40
81524;DHT22;70954;49.500;10.416;2023-12-07T05:39:27;2.80;72.60
81524;DHT22;70954;49.500;10.416;2023-12-07T05:41:53;2.80;72.80
81524;DHT22;70954;49.500;10.416;2023-12-07T05:44:18;2.80;73.00
81524;DHT22;70954;49.500;10.416;2023-12-07T05:46:43;2.80;73.10
81524;DHT22;70954;49.500;10.416;2023-12-07T05:49:09;2.80;73.00
81524;DHT22;70954;49.500;10.416;2023-12-07T05:51:34;2.80;73.00
81524;DHT22;70954;49.500;10.416;2023-12-07T05:54:00;2.80;73.00
81524;DHT22;70954;49.500;10.416;2023-12-07T05:56:25;2.80;73.00
81524;DHT22;70954;49.500;10.416;2023-12-07T05:58:51;2.80;73.20
81524;DHT22;70954;49.500;10.416;2023-12-07T06:01:17;2.80;73.30
81524;DHT22;70954;49.500;10.416;2023-12-07T06:03:43;2.90;73.40
81524;DHT22;70954;49.500;10.416;2023-12-07T06:06:08;2.90;73.40
81524;DHT22;70954;49.500;10.416;2023-12-07T06:08:34;2.90;73.50
81524;DHT22;70954;49.500;10.416;2023-12-07T06:10:59;2.90;73.50
81524;DHT22;70954;49.500;10.416;2023-12-07T06:13:25;2.90;73.50
81524;DHT22;70954;49.500;10.416;2023-12-07T06:15:50;3.00;73.60
81524;DHT22;70954;49.500;10.416;2023-12-07T06:18:16;3.00;73.70
81524;DHT22;70954;49.500;10.416;2023-12-07T06:20:41;3.00;73.60
81524;DHT22;70954;49.500;10.416;2023-12-07T06:23:06;3.00;73.70
81524;DHT22;70954;49.500;10.416;2023-12-07T06:25:32;3.10;73.70
81524;DHT22;70954;49.500;10.416;2023-12-07T06:27:57;3.10;73.70
81524;DHT22;70954;49.500;10.416;2023-12-07T06:30:23;3.10;73.80
81524;DHT22;70954;49.500;10.416;2023-12-07T06:32:48;3.10;73.80
81524;DHT22;70954;49.500;10.416;2023-12-07T06:35:14;3.10;73.80
81524;DHT22;70954;49.500;10.416;2023-12-07T06:37:39;3.10;73.90
81524;DHT22;70954;49.500;10.416;2023-12-07T06:40:06;3.20;73.90
81524;DHT22;70954;49.500;10.416;2023-12-07T06:42:31;3.30;73.90
81524;DHT22;70954;49.500;10.416;2023-12-07T06:44:57;3.30;73.90
81524;DHT22;70954;49.500;10.416;2023-12-07T06:47:22;3.30;74.00
81524;DHT22;70954;49.500;10.416;2023-12-07T06:49:48;3.30;73.90
81524;DHT22;70954;49.500;10.416;2023-12-07T06:52:13;3.30;73.90
81524;DHT22;70954;49.500;10.416;2023-12-07T06:54:39;3.40;73.90
81524;DHT22;70954;49.500;10.416;2023-12-07T06:57:04;3.40;73.80
81524;DHT22;70954;49.500;10.416;2023-12-07T06:59:30;3.50;73.70
81524;DHT22;70954;49.500;10.416;2023-12-07T07:01:55;3.50;73.60
81524;DHT22;70954;49.500;10.416;2023-12-07T07:04:21;3.50;73.60
81524;DHT22;70954;49.500;10.416;2023-12-07T07:06:46;3.50;73.60
81524;DHT22;70954;49.500;10.416;2023-12-07T07:09:12;3.50;73.60
81524;DHT22;70954;49.500;10.416;2023-12-07T07:11:37;3.50;73.60
81524;DHT22;70954;49.500;10.416;2023-12-07T07:14:03;3.60;73.50
81524;DHT22;70954;49.500;10.416;2023-12-07T07:16:28;3.60;73.50
81524;DHT22;70954;49.500;10.416;2023-12-07T07:18:53;3.60;73.50
81524;DHT22;70954;49.500;10.416;2023-12-07T07:21:19;3.60;73.50
81524;DHT22;70954;49.500;10.416;2023-12-07T07:23:44;3.60;73.50
81524;DHT22;70954;49.500;10.416;2023-12-07T07:26:10;3.60;73.40
81524;DHT22;70954;49.500;10.416;2023-12-07T07:28:35;3.70;73.30
81524;DHT22;70954;49.500;10.416;2023-12-07T07:31:01;3.70;73.20
81524;DHT22;70954;49.500;10.416;2023-12-07T07:33:26;3.70;73.20
81524;DHT22;70954;49.500;10.416;2023-12-07T07:35:52;3.70;73.00
81524;DHT22;70954;49.500;10.416;2023-12-07T07:38:17;3.70;72.90
81524;DHT22;70954;49.500;10.416;2023-12-07T07:40:42;3.70;72.80
81524;DHT22;70954;49.500;10.416;2023-12-07T07:43:08;3.70;72.80
81524;DHT22;70954;49.500;10.416;2023-12-07T07:45:34;3.70;72.70
81524;DHT22;70954;49.500;10.416;2023-12-07T07:47:59;3.70;72.60
81524;DHT22;70954;49.500;10.416;2023-12-07T07:50:25;3.70;72.60
81524;DHT22;70954;49.500;10.416;2023-12-07T07:52:50;3.70;72.60
81524;DHT22;70954;49.500;10.416;2023-12-07T07:55:16;3.70;72.50
81524;DHT22;70954;49.500;10.416;2023-12-07T07:57:41;3.70;72.20
81524;DHT22;70954;49.500;10.416;2023-12-07T08:00:07;3.70;72.20
81524;DHT22;70954;49.500;10.416;2023-12-07T08:02:33;3.60;72.10
81524;DHT22;70954;49.500;10.416;2023-12-07T08:04:58;3.60;72.00
81524;DHT22;70954;49.500;10.416;2023-12-07T08:07:24;3.60;72.00
81524;DHT22;70954;49.500;10.416;2023-12-07T08:09:49;3.60;72.00
81524;DHT22;70954;49.500;10.416;2023-12-07T08:12:15;3.60;72.00
81524;DHT22;70954;49.500;10.416;2023-12-07T08:14:40;3.50;72.10
81524;DHT22;70954;49.500;10.416;2023-12-07T08:17:05;3.50;72.20
81524;DHT22;70954;49.500;10.416;2023-12-07T08:19:31;3.50;72.30
81524;DHT22;70954;49.500;10.416;2023-12-07T08:21:56;3.50;72.50
81524;DHT22;70954;49.500;10.416;2023-12-07T08:24:22;3.50;72.50
81524;DHT22;70954;49.500;10.416;2023-12-07T08:26:47;3.50;72.60
81524;DHT22;70954;49.500;10.416;2023-12-07T08:29:13;3.50;72.70
81524;DHT22;70954;49.500;10.416;2023-12-07T08:31:40;3.50;72.70
81524;DHT22;70954;49.500;10.416;2023-12-07T08:34:05;3.50;72.70
81524;DHT22;70954;49.500;10.416;2023-12-07T08:36:31;3.50;72.70
81524;DHT22;70954;49.500;10.416;2023-12-07T08:38:56;3.50;72.80
81524;DHT22;70954;49.500;10.416;2023-12-07T08:41:22;3.50;72.90
81524;DHT22;70954;49.500;10.416;2023-12-07T08:43:47;3.50;73.00
81524;DHT22;70954;49.500;10.416;2023-12-07T08:46:13;3.60;73.00
81524;DHT22;70954;49.500;10.416;2023-12-07T08:48:38;3.60;73.20
81524;DHT22;70954;49.500;10.416;2023-12-07T08:51:04;3.60;73.30
81524;DHT22;70954;49.500;10.416;2023-12-07T08:53:29;3.60;73.50
81524;DHT22;70954;49.500;10.416;2023-12-07T08:55:55;3.70;73.60
81524;DHT22;70954;49.500;10.416;2023-12-07T08:58:20;3.70;73.80
81524;DHT22;70954;49.500;10.416;2023-12-07T09:00:46;3.80;74.00
81524;DHT22;70954;49.500;10.416;2023-12-07T09:03:11;3.90;74.10
81524;DHT22;70954;49.500;10.416;2023-12-07T09:05:36;3.90;74.30
81524;DHT22;70954;49.500;10.416;2023-12-07T09:08:02;4.00;74.40
81524;DHT22;70954;49.500;10.416;2023-12-07T09:10:27;4.00;74.30
81524;DHT22;70954;49.500;10.416;2023-12-07T09:12:53;4.10;73.80
81524;DHT22;70954;49.500;10.416;2023-12-07T09:15:18;4.10;73.50
81524;DHT22;70954;49.500;10.416;2023-12-07T09:17:44;4.20;73.30
81524;DHT22;70954;49.500;10.416;2023-12-07T09:20:10;4.20;73.10
81524;DHT22;70954;49.500;10.416;2023-12-07T09:22:35;4.20;73.00
81524;DHT22;70954;49.500;10.416;2023-12-07T09:25:01;4.20;73.00
81524;DHT22;70954;49.500;10.416;2023-12-07T09:27:26;4.20;72.90
81524;DHT22;70954;49.500;10.416;2023-12-07T09:29:52;4.30;72.90
81524;DHT22;70954;49.500;10.416;2023-12-07T09:32:17;4.30;72.80
81524;DHT22;70954;49.500;10.416;2023-12-07T09:34:42;4.30;72.90
81524;DHT22;70954;49.500;10.416;2023-12-07T09:37:09;4.30;73.10
81524;DHT22;70954;49.500;10.416;2023-12-07T09:39:35;4.40;73.10
81524;DHT22;70954;49.500;10.416;2023-12-07T09:42:00;4.40;73.20
81524;DHT22;70954;49.500;10.416;2023-12-07T09:44:26;4.50;72.80
81524;DHT22;70954;49.500;10.416;2023-12-07T09:46:52;4.50;72.90
81524;DHT22;70954;49.500;10.416;2023-12-07T09:49:18;4.50;72.70
81524;DHT22;70954;49.500;10.416;2023-12-07T09:51:44;4.50;72.70
81524;DHT22;70954;49.500;10.416;2023-12-07T09:54:11;4.60;72.80
81524;DHT22;70954;49.500;10.416;2023-12-07T09:56:36;4.70;73.00
81524;DHT22;70954;49.500;10.416;2023-12-07T09:59:02;4.70;72.90
81524;DHT22;70954;49.500;10.416;2023-12-07T10:01:31;4.80;72.50
81524;DHT22;70954;49.500;10.416;2023-12-07T10:04:26;4.90;72.10
81524;DHT22;70954;49.500;10.416;2023-12-07T10:06:56;4.80;71.40
81524;DHT22;70954;49.500;10.416;2023-12-07T10:09:21;4.90;71.40
81524;DHT22;70954;49.500;10.416;2023-12-07T10:11:47;4.90;71.10
81524;DHT22;70954;49.500;10.416;2023-12-07T10:14:13;4.90;71.00
81524;DHT22;70954;49.500;10.416;2023-12-07T10:16:39;4.90;70.90
81524;DHT22;70954;49.500;10.416;2023-12-07T10:19:17;4.90;70.50
81524;DHT22;70954;49.500;10.416;2023-12-07T10:21:42;4.90;70.40
81524;DHT22;70954;49.500;10.416;2023-12-07T10:24:09;4.90;70.30
81524;DHT22;70954;49.500;10.416;2023-12-07T10:26:35;4.80;70.30
81524;DHT22;70954;49.500;10.416;2023-12-07T10:29:00;4.80;70.40
81524;DHT22;70954;49.500;10.416;2023-12-07T10:31:26;4.80;70.40
81524;DHT22;70954;49.500;10.416;2023-12-07T10:33:52;4.80;70.70
81524;DHT22;70954;49.500;10.416;2023-12-07T10:36:17;4.70;70.60
81524;DHT22;70954;49.500;10.416;2023-12-07T10:38:43;4.80;70.70
81524;DHT22;70954;49.500;10.416;2023-12-07T10:41:09;4.80;70.40
81524;DHT22;70954;49.500;10.416;2023-12-07T10:43:38;4.80;70.10
81524;DHT22;70954;49.500;10.416;2023-12-07T10:46:06;4.80;70.10
81524;DHT22;70954;49.500;10.416;2023-12-07T10:48:34;4.80;70.10
81524;DHT22;70954;49.500;10.416;2023-12-07T10:51:04;4.70;70.30
81524;DHT22;70954;49.500;10.416;2023-12-07T10:53:38;4.80;70.40
81524;DHT22;70954;49.500;10.416;2023-12-07T10:56:05;4.80;70.30
81524;DHT22;70954;49.500;10.416;2023-12-07T10:58:35;4.70;70.30
81524;DHT22;70954;49.500;10.416;2023-12-07T11:01:01;4.80;70.30
81524;DHT22;70954;49.500;10.416;2023-12-07T11:03:27;4.80;70.30
81524;DHT22;70954;49.500;10.416;2023-12-07T11:05:53;4.80;70.40
81524;DHT22;70954;49.500;10.416;2023-12-07T11:08:32;4.80;70.60
81524;DHT22;70954;49.500;10.416;2023-12-07T11:11:44;4.90;70.60
81524;DHT22;70954;49.500;10.416;2023-12-07T11:14:12;4.80;70.20
81524;DHT22;70954;49.500;10.416;2023-12-07T11:16:42;4.90;70.50
81524;DHT22;70954;49.500;10.416;2023-12-07T11:21:56;4.90;70.30
81524;DHT22;70954;49.500;10.416;2023-12-07T11:24:23;4.90;70.60
81524;DHT22;70954;49.500;10.416;2023-12-07T11:26:52;5.00;70.70
81524;DHT22;70954;49.500;10.416;2023-12-07T11:29:20;5.00;70.50
81524;DHT22;70954;49.500;10.416;2023-12-07T11:31:46;5.00;70.50
81524;DHT22;70954;49.500;10.416;2023-12-07T11:34:11;5.00;70.50
81524;DHT22;70954;49.500;10.416;2023-12-07T11:36:37;5.00;70.30
81524;DHT22;70954;49.500;10.416;2023-12-07T11:41:40;5.10;69.80
81524;DHT22;70954;49.500;10.416;2023-12-07T11:44:08;5.10;69.60
81524;DHT22;70954;49.500;10.416;2023-12-07T11:46:34;5.00;69.50
81524;DHT22;70954;49.500;10.416;2023-12-07T11:49:00;5.10;69.40
81524;DHT22;70954;49.500;10.416;2023-12-07T11:51:29;5.00;69.40
81524;DHT22;70954;49.500;10.416;2023-12-07T11:53:54;5.00;69.30
81524;DHT22;70954;49.500;10.416;2023-12-07T11:56:20;5.00;69.30
81524;DHT22;70954;49.500;10.416;2023-12-07T11:58:46;5.00;69.30
81524;DHT22;70954;49.500;10.416;2023-12-07T12:01:11;5.00;69.30
81524;DHT22;70954;49.500;10.416;2023-12-07T12:03:37;5.00;69.30
81524;DHT22;70954;49.500;10.416;2023-12-07T12:06:04;5.00;69.30
81524;DHT22;70954;49.500;10.416;2023-12-07T12:08:30;4.90;69.30
81524;DHT22;70954;49.500;10.416;2023-12-07T12:10:56;4.90;69.30
81524;DHT22;70954;49.500;10.416;2023-12-07T12:13:29;4.90;69.30
81524;DHT22;70954;49.500;10.416;2023-12-07T12:15:56;4.90;69.40
81524;DHT22;70954;49.500;10.416;2023-12-07T12:18:21;4.90;69.40
81524;DHT22;70954;49.500;10.416;2023-12-07T12:20:47;4.80;69.40
81524;DHT22;70954;49.500;10.416;2023-12-07T12:23:12;4.80;69.40
81524;DHT22;70954;49.500;10.416;2023-12-07T12:25:38;4.80;69.50
81524;DHT22;70954;49.500;10.416;2023-12-07T12:28:04;4.80;69.60
81524;DHT22;70954;49.500;10.416;2023-12-07T12:30:31;4.80;69.80
81524;DHT22;70954;49.500;10.416;2023-12-07T12:32:57;4.80;69.80
81524;DHT22;70954;49.500;10.416;2023-12-07T12:35:23;4.80;69.80
81524;DHT22;70954;49.500;10.416;2023-12-07T12:37:49;4.80;69.80
81524;DHT22;70954;49.500;10.416;2023-12-07T12:40:17;4.80;69.90
81524;DHT22;70954;49.500;10.416;2023-12-07T12:42:44;4.80;69.90
81524;DHT22;70954;49.500;10.416;2023-12-07T12:45:10;4.90;70.10
81524;DHT22;70954;49.500;10.416;2023-12-07T12:47:35;4.90;70.10
81524;DHT22;70954;49.500;10.416;2023-12-07T12:50:01;4.90;70.10
81524;DHT22;70954;49.500;10.416;2023-12-07T12:52:28;4.90;70.10
81524;DHT22;70954;49.500;10.416;2023-12-07T12:54:55;5.00;70.00
81524;DHT22;70954;49.500;10.416;2023-12-07T12:57:21;5.00;69.90
81524;DHT22;70954;49.500;10.416;2023-12-07T12:59:47;5.00;69.80
81524;DHT22;70954;49.500;10.416;2023-12-07T13:02:13;5.00;69.70
81524;DHT22;70954;49.500;10.416;2023-12-07T13:04:38;5.00;69.60
81524;DHT22;70954;49.500;10.416;2023-12-07T13:07:04;5.00;69.50
81524;DHT22;70954;49.500;10.416;2023-12-07T13:09:29;5.00;69.40
81524;DHT22;70954;49.500;10.416;2023-12-07T13:11:54;5.00;69.40
81524;DHT22;70954;49.500;10.416;2023-12-07T13:14:20;5.00;69.30
81524;DHT22;70954;49.500;10.416;2023-12-07T13:16:45;5.00;69.40
81524;DHT22;70954;49.500;10.416;2023-12-07T13:19:11;5.00;69.40
81524;DHT22;70954;49.500;10.416;2023-12-07T13:21:36;5.00;69.70
81524;DHT22;70954;49.500;10.416;2023-12-07T13:24:02;5.10;69.90
81524;DHT22;70954;49.500;10.416;2023-12-07T13:26:27;5.10;70.10
81524;DHT22;70954;49.500;10.416;2023-12-07T13:28:54;5.10;70.40
81524;DHT22;70954;49.500;10.416;2023-12-07T13:31:19;5.20;70.60
81524;DHT22;70954;49.500;10.416;2023-12-07T13:33:44;5.30;70.70
81524;DHT22;70954;49.500;10.416;2023-12-07T13:36:10;5.30;70.60
81524;DHT22;70954;49.500;10.416;2023-12-07T13:38:35;5.40;70.40
81524;DHT22;70954;49.500;10.416;2023-12-07T13:41:01;5.50;70.10
81524;DHT22;70954;49.500;10.416;2023-12-07T13:43:26;5.50;70.00
81524;DHT22;70954;49.500;10.416;2023-12-07T13:45:52;5.50;69.70
81524;DHT22;70954;49.500;10.416;2023-12-07T13:48:18;5.50;69.70
81524;DHT22;70954;49.500;10.416;2023-12-07T13:50:43;5.50;69.50
81524;DHT22;70954;49.500;10.416;2023-12-07T13:53:09;5.60;69.50
81524;DHT22;70954;49.500;10.416;2023-12-07T13:55:34;5.60;69.40
81524;DHT22;70954;49.500;10.416;2023-12-07T13:58:00;5.60;69.50
81524;DHT22;70954;49.500;10.416;2023-12-07T14:00:25;5.60;69.20
81524;DHT22;70954;49.500;10.416;2023-12-07T14:02:51;5.70;69.20
81524;DHT22;70954;49.500;10.416;2023-12-07T14:05:16;5.70;68.90
81524;DHT22;70954;49.500;10.416;2023-12-07T14:07:41;5.70;68.50
81524;DHT22;70954;49.500;10.416;2023-12-07T14:10:07;5.70;68.00
81524;DHT22;70954;49.500;10.416;2023-12-07T14:12:33;5.70;67.90
81524;DHT22;70954;49.500;10.416;2023-12-07T14:14:58;5.70;67.70
81524;DHT22;70954;49.500;10.416;2023-12-07T14:17:24;5.60;67.60
81524;DHT22;70954;49.500;10.416;2023-12-07T14:19:49;5.60;67.40
81524;DHT22;70954;49.500;10.416;2023-12-07T14:22:14;5.50;67.20
81524;DHT22;70954;49.500;10.416;2023-12-07T14:24:40;5.50;67.20
81524;DHT22;70954;49.500;10.416;2023-12-07T14:27:06;5.40;67.30
81524;DHT22;70954;49.500;10.416;2023-12-07T14:29:32;5.40;67.20
81524;DHT22;70954;49.500;10.416;2023-12-07T14:31:58;5.30;67.10
81524;DHT22;70954;49.500;10.416;2023-12-07T14:34:24;5.30;67.10
81524;DHT22;70954;49.500;10.416;2023-12-07T14:36:50;5.20;67.10
81524;DHT22;70954;49.500;10.416;2023-12-07T14:39:15;5.10;67.00
81524;DHT22;70954;49.500;10.416;2023-12-07T14:41:41;5.10;67.00
81524;DHT22;70954;49.500;10.416;2023-12-07T14:44:06;5.00;67.00
81524;DHT22;70954;49.500;10.416;2023-12-07T14:46:32;5.00;67.00
81524;DHT22;70954;49.500;10.416;2023-12-07T14:48:57;4.90;67.10
81524;DHT22;70954;49.500;10.416;2023-12-07T14:51:23;4.90;67.00
81524;DHT22;70954;49.500;10.416;2023-12-07T14:53:48;4.80;67.10
81524;DHT22;70954;49.500;10.416;2023-12-07T14:56:14;4.70;67.20
81524;DHT22;70954;49.500;10.416;2023-12-07T14:58:39;4.70;67.10
81524;DHT22;70954;49.500;10.416;2023-12-07T15:01:06;4.60;67.20
81524;DHT22;70954;49.500;10.416;2023-12-07T15:03:31;4.50;67.20
81524;DHT22;70954;49.500;10.416;2023-12-07T15:05:57;4.50;67.20
81524;DHT22;70954;49.500;10.416;2023-12-07T15:08:22;4.50;67.10
81524;DHT22;70954;49.500;10.416;2023-12-07T15:10:48;4.40;67.20
81524;DHT22;70954;49.500;10.416;2023-12-07T15:13:13;4.40;67.20
81524;DHT22;70954;49.500;10.416;2023-12-07T15:15:38;4.30;67.20
81524;DHT22;70954;49.500;10.416;2023-12-07T15:18:04;4.20;67.30
81524;DHT22;70954;49.500;10.416;2023-12-07T15:20:29;4.20;67.30
81524;DHT22;70954;49.500;10.416;2023-12-07T15:22:55;4.10;67.40
81524;DHT22;70954;49.500;10.416;2023-12-07T15:25:20;4.10;67.50
81524;DHT22;70954;49.500;10.416;2023-12-07T15:27:46;4.00;67.50